sensor_id;sensor_type;location;lat;lon;timestamp;pressure;altitude;pressure_sealevel;temperature;humidity
10852;BME280;5479;52.046;6.314;2022-10-16T00:01:38;100922.06;;;12.02;100.00
10852;BME280;5479;52.046;6.314;2022-10-16T00:04:05;100918.56;;;12.02;100.00
10852;BME280;5479;52.046;6.314;2022-10-16T00:06:33;100921.31;;;12.00;100.00
10852;BME280;5479;52.046;6.314;2022-10-16T00:09:01;100927.94;;;11.93;100.00
10852;BME280;5479;52.046;6.314;2022-10-16T00:11:31;100923.00;;;12.01;100.00
10852;BME280;5479;52.046;6.314;2022-10-16T00:14:01;100926.28;;;11.92;100.00
10852;BME280;5479;52.046;6.314;2022-10-16T00:16:31;100924.94;;;11.85;100.00
10852;BME280;5479;52.046;6.314;2022-10-16T00:18:59;100922.50;;;11.82;100.00
10852;BME280;5479;52.046;6.314;2022-10-16T00:21:29;100923.25;;;11.84;100.00
10852;BME280;5479;52.046;6.314;2022-10-16T00:23:59;100920.22;;;11.90;100.00
10852;BME280;5479;52.046;6.314;2022-10-16T00:26:28;100923.63;;;11.92;100.00
10852;BME280;5479;52.046;6.314;2022-10-16T00:28:56;100926.66;;;11.86;100.00
10852;BME280;5479;52.046;6.314;2022-10-16T00:31:25;100923.13;;;11.86;100.00
10852;BME280;5479;52.046;6.314;2022-10-16T00:33:54;100926.06;;;11.81;100.00
10852;BME280;5479;52.046;6.314;2022-10-16T00:36:24;100915.09;;;11.87;100.00
10852;BME280;5479;52.046;6.314;2022-10-16T00:38:54;100918.50;;;11.89;100.00
10852;BME280;5479;52.046;6.314;2022-10-16T00:41:24;100912.50;;;11.86;100.00
10852;BME280;5479;52.046;6.314;2022-10-16T00:43:56;100918.31;;;11.92;100.00
10852;BME280;5479;52.046;6.314;2022-10-16T00:46:26;100921.59;;;11.96;100.00
10852;BME280;5479;52.046;6.314;2022-10-16T00:49:00;100916.28;;;11.96;100.00
10852;BME280;5479;52.046;6.314;2022-10-16T00:51:32;100914.69;;;11.93;100.00
10852;BME280;5479;52.046;6.314;2022-10-16T00:54:02;100912.59;;;11.98;100.00
10852;BME280;5479;52.046;6.314;2022-10-16T00:56:32;100918.69;;;12.00;100.00
10852;BME280;5479;52.046;6.314;2022-10-16T00:59:04;100926.44;;;12.03;100.00
10852;BME280;5479;52.046;6.314;2022-10-16T01:01:34;100912.59;;;11.98;100.00
10852;BME280;5479;52.046;6.314;2022-10-16T01:04:03;100914.50;;;11.96;100.00
10852;BME280;5479;52.046;6.314;2022-10-16T01:06:37;100913.63;;;11.96;100.00
10852;BME280;5479;52.046;6.314;2022-10-16T01:09:16;100927.75;;;11.96;100.00
10852;BME280;5479;52.046;6.314;2022-10-16T01:11:52;100916.59;;;11.91;100.00
10852;BME280;5479;52.046;6.314;2022-10-16T01:14:27;100926.06;;;11.95;100.00
10852;BME280;5479;52.046;6.314;2022-10-16T01:17:03;100921.72;;;11.94;100.00
10852;BME280;5479;52.046;6.314;2022-10-16T01:19:54;100917.44;;;11.92;100.00
10852;BME280;5479;52.046;6.314;2022-10-16T01:22:36;100927.00;;;11.94;100.00
10852;BME280;5479;52.046;6.314;2022-10-16T01:25:11;100926.53;;;11.88;100.00
10852;BME280;5479;52.046;6.314;2022-10-16T01:27:45;100924.53;;;11.77;100.00
10852;BME280;5479;52.046;6.314;2022-10-16T01:30:17;100925.59;;;11.75;100.00
10852;BME280;5479;52.046;6.314;2022-10-16T01:32:52;100922.88;;;11.76;100.00
10852;BME280;5479;52.046;6.314;2022-10-16T01:35:23;100918.50;;;11.75;100.00
10852;BME280;5479;52.046;6.314;2022-10-16T01:37:56;100916.41;;;11.66;100.00
10852;BME280;5479;52.046;6.314;2022-10-16T01:40:27;100912.97;;;11.64;100.00
10852;BME280;5479;52.046;6.314;2022-10-16T01:43:00;100915.09;;;11.73;100.00
10852;BME280;5479;52.046;6.314;2022-10-16T01:45:31;100912.06;;;11.79;100.00
10852;BME280;5479;52.046;6.314;2022-10-16T01:48:00;100912.63;;;11.84;100.00
10852;BME280;5479;52.046;6.314;2022-10-16T01:50:33;100909.00;;;11.85;100.00
10852;BME280;5479;52.046;6.314;2022-10-16T01:53:04;100902.09;;;11.83;100.00
10852;BME280;5479;52.046;6.314;2022-10-16T01:55:36;100906.16;;;11.88;100.00
10852;BME280;5479;52.046;6.314;2022-10-16T01:58:10;100907.22;;;11.86;100.00
10852;BME280;5479;52.046;6.314;2022-10-16T02:00:41;100913.19;;;11.89;100.00
10852;BME280;5479;52.046;6.314;2022-10-16T02:03:13;100926.81;;;11.97;100.00
10852;BME280;5479;52.046;6.314;2022-10-16T02:05:45;100919.81;;;11.96;100.00
10852;BME280;5479;52.046;6.314;2022-10-16T02:08:13;100935.53;;;11.99;100.00
10852;BME280;5479;52.046;6.314;2022-10-16T02:10:41;100936.84;;;12.06;100.00
10852;BME280;5479;52.046;6.314;2022-10-16T02:13:13;100927.25;;;12.18;100.00
10852;BME280;5479;52.046;6.314;2022-10-16T02:15:43;100925.81;;;12.27;100.00
10852;BME280;5479;52.046;6.314;2022-10-16T02:18:11;100926.38;;;12.32;100.00
10852;BME280;5479;52.046;6.314;2022-10-16T02:20:45;100925.25;;;12.36;100.00
10852;BME280;5479;52.046;6.314;2022-10-16T02:23:23;100931.50;;;12.35;100.00
10852;BME280;5479;52.046;6.314;2022-10-16T02:25:53;100934.91;;;12.37;100.00
10852;BME280;5479;52.046;6.314;2022-10-16T02:28:26;100940.13;;;12.38;100.00
10852;BME280;5479;52.046;6.314;2022-10-16T02:30:59;100939.91;;;12.41;100.00
10852;BME280;5479;52.046;6.314;2022-10-16T02:33:28;100937.25;;;12.41;100.00
10852;BME280;5479;52.046;6.314;2022-10-16T02:35:58;100954.03;;;12.42;100.00
10852;BME280;5479;52.046;6.314;2022-10-16T02:38:26;100950.84;;;12.37;100.00
10852;BME280;5479;52.046;6.314;2022-10-16T02:40:56;100947.03;;;12.41;100.00
10852;BME280;5479;52.046;6.314;2022-10-16T02:43:25;100943.41;;;12.42;100.00
10852;BME280;5479;52.046;6.314;2022-10-16T02:45:53;100943.03;;;12.48;100.00
10852;BME280;5479;52.046;6.314;2022-10-16T02:48:22;100930.69;;;12.47;100.00
10852;BME280;5479;52.046;6.314;2022-10-16T02:50:50;100925.19;;;12.50;100.00
10852;BME280;5479;52.046;6.314;2022-10-16T02:53:18;100923.63;;;12.60;100.00
10852;BME280;5479;52.046;6.314;2022-10-16T02:55:46;100926.09;;;12.63;100.00
10852;BME280;5479;52.046;6.314;2022-10-16T02:58:14;100919.28;;;12.59;100.00
10852;BME280;5479;52.046;6.314;2022-10-16T03:00:43;100920.97;;;12.60;100.00
10852;BME280;5479;52.046;6.314;2022-10-16T03:03:12;100917.69;;;12.56;100.00
10852;BME280;5479;52.046;6.314;2022-10-16T03:05:40;100918.53;;;12.57;100.00
10852;BME280;5479;52.046;6.314;2022-10-16T03:08:08;100930.50;;;12.50;100.00
10852;BME280;5479;52.046;6.314;2022-10-16T03:10:35;100936.22;;;12.44;100.00
10852;BME280;5479;52.046;6.314;2022-10-16T03:13:03;100936.00;;;12.47;100.00
10852;BME280;5479;52.046;6.314;2022-10-16T03:15:31;100924.81;;;12.42;100.00
10852;BME280;5479;52.046;6.314;2022-10-16T03:18:00;100938.72;;;12.33;100.00
10852;BME280;5479;52.046;6.314;2022-10-16T03:20:28;100946.59;;;12.20;100.00
10852;BME280;5479;52.046;6.314;2022-10-16T03:22:56;100936.66;;;12.09;100.00
10852;BME280;5479;52.046;6.314;2022-10-16T03:25:24;100943.31;;;12.02;100.00
10852;BME280;5479;52.046;6.314;2022-10-16T03:27:52;100943.31;;;12.02;100.00
10852;BME280;5479;52.046;6.314;2022-10-16T03:30:20;100936.41;;;12.00;100.00
10852;BME280;5479;52.046;6.314;2022-10-16T03:32:48;100949.97;;;11.95;100.00
10852;BME280;5479;52.046;6.314;2022-10-16T03:35:22;100955.47;;;11.92;100.00
10852;BME280;5479;52.046;6.314;2022-10-16T03:37:50;100963.50;;;11.91;100.00
10852;BME280;5479;52.046;6.314;2022-10-16T03:40:18;100956.88;;;11.98;100.00
10852;BME280;5479;52.046;6.314;2022-10-16T03:42:46;100957.25;;;12.06;100.00
10852;BME280;5479;52.046;6.314;2022-10-16T03:45:14;100959.13;;;12.04;100.00
10852;BME280;5479;52.046;6.314;2022-10-16T03:47:42;100953.44;;;12.10;100.00
10852;BME280;5479;52.046;6.314;2022-10-16T03:50:10;100949.00;;;12.10;100.00
10852;BME280;5479;52.046;6.314;2022-10-16T03:52:39;100954.28;;;12.10;100.00
10852;BME280;5479;52.046;6.314;2022-10-16T03:55:07;100965.09;;;12.07;100.00
10852;BME280;5479;52.046;6.314;2022-10-16T03:57:35;100970.22;;;12.10;100.00
10852;BME280;5479;52.046;6.314;2022-10-16T04:00:04;100964.06;;;12.10;100.00
10852;BME280;5479;52.046;6.314;2022-10-16T04:02:32;100959.78;;;12.07;100.00
10852;BME280;5479;52.046;6.314;2022-10-16T04:05:00;100966.22;;;12.18;100.00
10852;BME280;5479;52.046;6.314;2022-10-16T04:07:28;100962.06;;;12.14;100.00
10852;BME280;5479;52.046;6.314;2022-10-16T04:09:59;100953.91;;;12.17;100.00
10852;BME280;5479;52.046;6.314;2022-10-16T04:12:27;100959.78;;;12.07;100.00
10852;BME280;5479;52.046;6.314;2022-10-16T04:14:55;100969.66;;;12.05;100.00
10852;BME280;5479;52.046;6.314;2022-10-16T04:17:23;100974.41;;;12.00;100.00
10852;BME280;5479;52.046;6.314;2022-10-16T04:19:51;100978.28;;;11.95;100.00
10852;BME280;5479;52.046;6.314;2022-10-16T04:22:19;100984.06;;;12.01;100.00
10852;BME280;5479;52.046;6.314;2022-10-16T04:24:47;100985.59;;;12.05;100.00
10852;BME280;5479;52.046;6.314;2022-10-16T04:27:16;100984.25;;;12.13;100.00
10852;BME280;5479;52.046;6.314;2022-10-16T04:29:44;100992.97;;;12.15;100.00
10852;BME280;5479;52.046;6.314;2022-10-16T04:32:11;100992.78;;;12.18;100.00
10852;BME280;5479;52.046;6.314;2022-10-16T04:34:39;100997.50;;;12.27;100.00
10852;BME280;5479;52.046;6.314;2022-10-16T04:37:07;100998.38;;;12.27;100.00
10852;BME280;5479;52.046;6.314;2022-10-16T04:39:35;100994.38;;;12.34;100.00
10852;BME280;5479;52.046;6.314;2022-10-16T04:42:03;100992.75;;;12.32;100.00
10852;BME280;5479;52.046;6.314;2022-10-16T04:44:32;101009.94;;;12.40;100.00
10852;BME280;5479;52.046;6.314;2022-10-16T04:47:00;101007.94;;;12.44;100.00
10852;BME280;5479;52.046;6.314;2022-10-16T04:49:28;101003.19;;;12.49;100.00
10852;BME280;5479;52.046;6.314;2022-10-16T04:51:57;101005.06;;;12.47;100.00
10852;BME280;5479;52.046;6.314;2022-10-16T04:54:25;101008.00;;;12.42;100.00
10852;BME280;5479;52.046;6.314;2022-10-16T04:56:53;101020.63;;;12.39;100.00
10852;BME280;5479;52.046;6.314;2022-10-16T04:59:22;101015.25;;;12.40;100.00
10852;BME280;5479;52.046;6.314;2022-10-16T05:01:51;101019.88;;;12.37;100.00
10852;BME280;5479;52.046;6.314;2022-10-16T05:04:19;101025.19;;;12.37;100.00
10852;BME280;5479;52.046;6.314;2022-10-16T05:06:47;101032.22;;;12.38;100.00
10852;BME280;5479;52.046;6.314;2022-10-16T05:09:15;101033.91;;;12.39;100.00
10852;BME280;5479;52.046;6.314;2022-10-16T05:11:43;101037.03;;;12.31;100.00
10852;BME280;5479;52.046;6.314;2022-10-16T05:14:11;101040.56;;;12.32;100.00
10852;BME280;5479;52.046;6.314;2022-10-16T05:16:39;101048.91;;;12.26;100.00
10852;BME280;5479;52.046;6.314;2022-10-16T05:19:08;101040.19;;;12.24;100.00
10852;BME280;5479;52.046;6.314;2022-10-16T05:21:36;101050.06;;;12.22;100.00
10852;BME280;5479;52.046;6.314;2022-10-16T05:24:05;101050.44;;;12.16;100.00
10852;BME280;5479;52.046;6.314;2022-10-16T05:26:33;101047.88;;;12.14;100.00
10852;BME280;5479;52.046;6.314;2022-10-16T05:29:01;101057.34;;;12.18;100.00
10852;BME280;5479;52.046;6.314;2022-10-16T05:31:29;101057.53;;;12.15;100.00
10852;BME280;5479;52.046;6.314;2022-10-16T05:33:58;101061.63;;;12.21;100.00
10852;BME280;5479;52.046;6.314;2022-10-16T05:36:28;101066.94;;;12.21;100.00
10852;BME280;5479;52.046;6.314;2022-10-16T05:38:55;101066.94;;;12.21;100.00
10852;BME280;5479;52.046;6.314;2022-10-16T05:41:24;101064.28;;;12.21;100.00
10852;BME280;5479;52.046;6.314;2022-10-16T05:43:53;101069.75;;;12.18;100.00
10852;BME280;5479;52.046;6.314;2022-10-16T05:46:21;101070.25;;;12.10;100.00
10852;BME280;5479;52.046;6.314;2022-10-16T05:48:51;101078.31;;;12.08;100.00
10852;BME280;5479;52.046;6.314;2022-10-16T05:51:19;101088.25;;;12.05;100.00
10852;BME280;5479;52.046;6.314;2022-10-16T05:53:48;101093.84;;;12.00;100.00
10852;BME280;5479;52.046;6.314;2022-10-16T05:56:16;101091.19;;;12.00;100.00
10852;BME280;5479;52.046;6.314;2022-10-16T05:58:45;101094.75;;;11.85;100.00
10852;BME280;5479;52.046;6.314;2022-10-16T06:01:15;101107.75;;;11.90;100.00
10852;BME280;5479;52.046;6.314;2022-10-16T06:03:44;101108.81;;;11.87;100.00
10852;BME280;5479;52.046;6.314;2022-10-16T06:06:14;101117.97;;;11.82;100.00
10852;BME280;5479;52.046;6.314;2022-10-16T06:08:43;101118.22;;;11.77;100.00
10852;BME280;5479;52.046;6.314;2022-10-16T06:11:15;101122.78;;;11.75;100.00
10852;BME280;5479;52.046;6.314;2022-10-16T06:13:44;101141.69;;;11.85;100.00
10852;BME280;5479;52.046;6.314;2022-10-16T06:16:12;101142.91;;;11.79;100.00
10852;BME280;5479;52.046;6.314;2022-10-16T06:18:40;101151.19;;;11.73;100.00
10852;BME280;5479;52.046;6.314;2022-10-16T06:21:10;101151.38;;;11.70;100.00
10852;BME280;5479;52.046;6.314;2022-10-16T06:23:38;101157.09;;;11.78;100.00
10852;BME280;5479;52.046;6.314;2022-10-16T06:26:06;101153.09;;;11.71;100.00
10852;BME280;5479;52.046;6.314;2022-10-16T06:28:36;101159.34;;;11.70;100.00
10852;BME280;5479;52.046;6.314;2022-10-16T06:31:07;101157.19;;;11.77;100.00
10852;BME280;5479;52.046;6.314;2022-10-16T06:33:36;101167.59;;;11.80;100.00
10852;BME280;5479;52.046;6.314;2022-10-16T06:36:06;101162.50;;;11.77;100.00
10852;BME280;5479;52.046;6.314;2022-10-16T06:38:35;101170.09;;;11.83;100.00
10852;BME280;5479;52.046;6.314;2022-10-16T06:41:03;101161.41;;;11.95;100.00
10852;BME280;5479;52.046;6.314;2022-10-16T06:43:32;101162.28;;;12.09;100.00
10852;BME280;5479;52.046;6.314;2022-10-16T06:46:05;101166.22;;;12.32;100.00
10852;BME280;5479;52.046;6.314;2022-10-16T06:48:34;101169.69;;;12.62;100.00
10852;BME280;5479;52.046;6.314;2022-10-16T06:51:04;101162.44;;;12.93;100.00
10852;BME280;5479;52.046;6.314;2022-10-16T06:53:34;101166.53;;;13.39;100.00
10852;BME280;5479;52.046;6.314;2022-10-16T06:56:10;101179.50;;;13.97;100.00
10852;BME280;5479;52.046;6.314;2022-10-16T06:58:38;101180.66;;;14.83;100.00
10852;BME280;5479;52.046;6.314;2022-10-16T07:01:08;101176.78;;;15.36;100.00
10852;BME280;5479;52.046;6.314;2022-10-16T07:03:38;101178.22;;;15.89;100.00
10852;BME280;5479;52.046;6.314;2022-10-16T07:06:09;101189.13;;;16.20;100.00
10852;BME280;5479;52.046;6.314;2022-10-16T07:08:38;101200.22;;;16.03;100.00
10852;BME280;5479;52.046;6.314;2022-10-16T07:11:08;101198.25;;;15.47;100.00
10852;BME280;5479;52.046;6.314;2022-10-16T07:13:38;101203.25;;;15.02;100.00
10852;BME280;5479;52.046;6.314;2022-10-16T07:16:08;101204.09;;;14.90;100.00
10852;BME280;5479;52.046;6.314;2022-10-16T07:18:38;101213.94;;;14.90;100.00
10852;BME280;5479;52.046;6.314;2022-10-16T07:21:11;101215.31;;;15.08;100.00
10852;BME280;5479;52.046;6.314;2022-10-16T07:23:40;101216.69;;;15.14;100.00
10852;BME280;5479;52.046;6.314;2022-10-16T07:26:09;101227.38;;;15.50;100.00
10852;BME280;5479;52.046;6.314;2022-10-16T07:28:37;101222.34;;;15.58;100.00
10852;BME280;5479;52.046;6.314;2022-10-16T07:31:09;101235.16;;;15.53;100.00
10852;BME280;5479;52.046;6.314;2022-10-16T07:33:41;101234.22;;;15.54;100.00
10852;BME280;5479;52.046;6.314;2022-10-16T07:36:10;101240.22;;;15.68;100.00
10852;BME280;5479;52.046;6.314;2022-10-16T07:38:38;101256.75;;;15.50;100.00
10852;BME280;5479;52.046;6.314;2022-10-16T07:41:10;101254.19;;;15.48;100.00
10852;BME280;5479;52.046;6.314;2022-10-16T07:43:39;101264.84;;;15.36;100.00
10852;BME280;5479;52.046;6.314;2022-10-16T07:46:09;101263.34;;;15.44;100.00
10852;BME280;5479;52.046;6.314;2022-10-16T07:48:37;101270.59;;;15.55;100.00
10852;BME280;5479;52.046;6.314;2022-10-16T07:51:06;101267.88;;;15.80;100.00
10852;BME280;5479;52.046;6.314;2022-10-16T07:53:34;101279.91;;;15.86;100.00
10852;BME280;5479;52.046;6.314;2022-10-16T07:56:04;101280.56;;;16.24;100.00
10852;BME280;5479;52.046;6.314;2022-10-16T07:58:33;101283.59;;;16.89;100.00
10852;BME280;5479;52.046;6.314;2022-10-16T08:01:05;101290.53;;;17.47;100.00
10852;BME280;5479;52.046;6.314;2022-10-16T08:03:34;101291.53;;;18.43;100.00
10852;BME280;5479;52.046;6.314;2022-10-16T08:06:03;101291.28;;;19.08;100.00
10852;BME280;5479;52.046;6.314;2022-10-16T08:08:32;101295.56;;;19.41;100.00
10852;BME280;5479;52.046;6.314;2022-10-16T08:11:00;101297.63;;;19.67;100.00
10852;BME280;5479;52.046;6.314;2022-10-16T08:13:30;101296.94;;;19.75;100.00
10852;BME280;5479;52.046;6.314;2022-10-16T08:15:59;101304.81;;;20.16;100.00
10852;BME280;5479;52.046;6.314;2022-10-16T08:18:27;101311.28;;;21.19;97.48
10852;BME280;5479;52.046;6.314;2022-10-16T08:20:57;101298.41;;;21.50;91.84
10852;BME280;5479;52.046;6.314;2022-10-16T08:23:27;101298.69;;;21.47;88.68
10852;BME280;5479;52.046;6.314;2022-10-16T08:26:01;101308.63;;;21.46;86.72
10852;BME280;5479;52.046;6.314;2022-10-16T08:28:29;101298.34;;;21.59;85.53
10852;BME280;5479;52.046;6.314;2022-10-16T08:31:05;101299.88;;;21.35;83.64
10852;BME280;5479;52.046;6.314;2022-10-16T08:33:33;101301.13;;;21.67;83.29
10852;BME280;5479;52.046;6.314;2022-10-16T08:36:03;101305.66;;;21.67;81.93
10852;BME280;5479;52.046;6.314;2022-10-16T08:38:32;101304.63;;;22.05;77.09
10852;BME280;5479;52.046;6.314;2022-10-16T08:41:17;101315.50;;;21.31;81.33
10852;BME280;5479;52.046;6.314;2022-10-16T08:44:08;101313.63;;;21.69;80.71
10852;BME280;5479;52.046;6.314;2022-10-16T08:46:47;101326.19;;;21.50;81.31
10852;BME280;5479;52.046;6.314;2022-10-16T08:49:18;101329.78;;;22.58;76.99
10852;BME280;5479;52.046;6.314;2022-10-16T08:51:48;101318.97;;;23.19;70.81
10852;BME280;5479;52.046;6.314;2022-10-16T08:54:28;101314.22;;;22.52;72.18
10852;BME280;5479;52.046;6.314;2022-10-16T08:57:01;101337.56;;;22.61;72.06
10852;BME280;5479;52.046;6.314;2022-10-16T08:59:34;101356.81;;;20.84;82.82
10852;BME280;5479;52.046;6.314;2022-10-16T09:02:19;101351.00;;;20.88;85.47
10852;BME280;5479;52.046;6.314;2022-10-16T09:05:01;101345.22;;;20.45;88.28
10852;BME280;5479;52.046;6.314;2022-10-16T09:07:35;101343.94;;;20.59;88.92
10852;BME280;5479;52.046;6.314;2022-10-16T09:10:25;101358.19;;;20.97;87.43
10852;BME280;5479;52.046;6.314;2022-10-16T09:13:02;101356.41;;;21.91;79.08
10852;BME280;5479;52.046;6.314;2022-10-16T09:15:39;101360.50;;;21.48;81.04
10852;BME280;5479;52.046;6.314;2022-10-16T09:18:13;101357.91;;;21.29;82.84
10852;BME280;5479;52.046;6.314;2022-10-16T09:20:49;101362.16;;;21.59;78.41
10852;BME280;5479;52.046;6.314;2022-10-16T09:23:25;101372.81;;;21.04;82.27
10852;BME280;5479;52.046;6.314;2022-10-16T09:25:55;101372.38;;;21.19;84.35
10852;BME280;5479;52.046;6.314;2022-10-16T09:28:24;101380.47;;;21.09;80.96
10852;BME280;5479;52.046;6.314;2022-10-16T09:30:52;101381.56;;;21.16;82.01
10852;BME280;5479;52.046;6.314;2022-10-16T09:33:23;101380.78;;;21.99;78.13
10852;BME280;5479;52.046;6.314;2022-10-16T09:35:54;101388.16;;;22.59;72.66
10852;BME280;5479;52.046;6.314;2022-10-16T09:38:28;101385.50;;;23.20;68.80
10852;BME280;5479;52.046;6.314;2022-10-16T09:40:57;101381.25;;;23.18;67.52
10852;BME280;5479;52.046;6.314;2022-10-16T09:43:28;101383.72;;;23.55;67.93
10852;BME280;5479;52.046;6.314;2022-10-16T09:46:01;101385.22;;;24.17;62.14
10852;BME280;5479;52.046;6.314;2022-10-16T09:48:34;101391.38;;;24.51;59.76
10852;BME280;5479;52.046;6.314;2022-10-16T09:51:05;101392.47;;;25.14;57.62
10852;BME280;5479;52.046;6.314;2022-10-16T09:53:41;101390.47;;;23.84;58.25
10852;BME280;5479;52.046;6.314;2022-10-16T09:56:10;101410.63;;;22.60;61.66
10852;BME280;5479;52.046;6.314;2022-10-16T09:58:42;101412.31;;;21.33;69.96
10852;BME280;5479;52.046;6.314;2022-10-16T10:01:13;101411.94;;;21.18;73.55
10852;BME280;5479;52.046;6.314;2022-10-16T10:03:43;101399.69;;;22.16;69.48
10852;BME280;5479;52.046;6.314;2022-10-16T10:06:18;101400.06;;;22.66;65.66
10852;BME280;5479;52.046;6.314;2022-10-16T10:09:03;101398.03;;;23.47;62.43
10852;BME280;5479;52.046;6.314;2022-10-16T10:11:43;101403.31;;;23.82;58.47
10852;BME280;5479;52.046;6.314;2022-10-16T10:14:23;101409.31;;;24.52;55.60
10852;BME280;5479;52.046;6.314;2022-10-16T10:17:00;101412.97;;;24.27;54.57
10852;BME280;5479;52.046;6.314;2022-10-16T10:19:29;101417.56;;;23.59;56.13
10852;BME280;5479;52.046;6.314;2022-10-16T10:21:57;101412.78;;;23.86;56.95
10852;BME280;5479;52.046;6.314;2022-10-16T10:24:27;101419.34;;;23.50;56.75
10852;BME280;5479;52.046;6.314;2022-10-16T10:27:00;101418.72;;;24.24;54.67
10852;BME280;5479;52.046;6.314;2022-10-16T10:29:47;101416.78;;;24.58;53.31
10852;BME280;5479;52.046;6.314;2022-10-16T10:32:28;101421.25;;;25.48;50.70
10852;BME280;5479;52.046;6.314;2022-10-16T10:35:11;101422.09;;;26.03;49.70
10852;BME280;5479;52.046;6.314;2022-10-16T10:37:55;101412.25;;;26.10;47.98
10852;BME280;5479;52.046;6.314;2022-10-16T10:40:34;101417.50;;;25.41;48.17
10852;BME280;5479;52.046;6.314;2022-10-16T10:43:13;101413.44;;;25.37;48.69
10852;BME280;5479;52.046;6.314;2022-10-16T10:45:45;101420.13;;;24.44;50.09
10852;BME280;5479;52.046;6.314;2022-10-16T10:48:22;101424.31;;;24.30;52.02
10852;BME280;5479;52.046;6.314;2022-10-16T10:50:57;101414.16;;;24.98;51.01
10852;BME280;5479;52.046;6.314;2022-10-16T10:53:36;101421.25;;;25.48;48.91
10852;BME280;5479;52.046;6.314;2022-10-16T10:56:18;101419.28;;;23.42;53.72
10852;BME280;5479;52.046;6.314;2022-10-16T10:59:11;101417.13;;;24.63;51.44
10852;BME280;5479;52.046;6.314;2022-10-16T11:01:50;101414.75;;;25.73;47.22
10852;BME280;5479;52.046;6.314;2022-10-16T11:04:46;101416.69;;;25.95;46.87
10852;BME280;5479;52.046;6.314;2022-10-16T11:07:20;101424.28;;;25.61;47.34
10852;BME280;5479;52.046;6.314;2022-10-16T11:09:51;101430.31;;;25.79;46.19
10852;BME280;5479;52.046;6.314;2022-10-16T11:12:23;101431.09;;;25.25;46.58
10852;BME280;5479;52.046;6.314;2022-10-16T11:14:58;101425.47;;;26.21;45.46
10852;BME280;5479;52.046;6.314;2022-10-16T11:17:32;101427.59;;;25.87;44.88
10852;BME280;5479;52.046;6.314;2022-10-16T11:20:05;101439.06;;;24.36;49.08
10852;BME280;5479;52.046;6.314;2022-10-16T11:22:42;101431.59;;;24.30;50.22
10852;BME280;5479;52.046;6.314;2022-10-16T11:25:14;101440.13;;;24.51;47.95
10852;BME280;5479;52.046;6.314;2022-10-16T11:27:50;101438.19;;;25.17;48.09
10852;BME280;5479;52.046;6.314;2022-10-16T11:30:21;101444.03;;;24.65;48.49
10852;BME280;5479;52.046;6.314;2022-10-16T11:33:00;101458.25;;;23.57;49.66
10852;BME280;5479;52.046;6.314;2022-10-16T11:35:38;101456.75;;;22.66;52.44
10852;BME280;5479;52.046;6.314;2022-10-16T11:38:14;101460.09;;;22.78;52.77
10852;BME280;5479;52.046;6.314;2022-10-16T11:40:45;101458.03;;;23.33;52.67
10852;BME280;5479;52.046;6.314;2022-10-16T11:43:22;101458.63;;;22.83;52.23
10852;BME280;5479;52.046;6.314;2022-10-16T11:45:54;101454.59;;;21.79;54.26
10852;BME280;5479;52.046;6.314;2022-10-16T11:48:27;101451.44;;;21.46;56.78
10852;BME280;5479;52.046;6.314;2022-10-16T11:51:02;101445.72;;;22.05;56.70
10852;BME280;5479;52.046;6.314;2022-10-16T11:53:41;101450.16;;;22.78;53.83
10852;BME280;5479;52.046;6.314;2022-10-16T11:56:12;101463.91;;;22.58;52.20
10852;BME280;5479;52.046;6.314;2022-10-16T11:58:51;101458.38;;;22.32;52.16
10852;BME280;5479;52.046;6.314;2022-10-16T12:01:26;101462.22;;;21.56;54.29
10852;BME280;5479;52.046;6.314;2022-10-16T12:04:13;101460.91;;;21.60;55.46
10852;BME280;5479;52.046;6.314;2022-10-16T12:06:44;101460.84;;;21.79;55.90
10852;BME280;5479;52.046;6.314;2022-10-16T12:09:19;101464.16;;;21.63;56.07
10852;BME280;5479;52.046;6.314;2022-10-16T12:11:48;101464.44;;;22.61;54.58
10852;BME280;5479;52.046;6.314;2022-10-16T12:14:39;101462.84;;;23.39;51.36
10852;BME280;5479;52.046;6.314;2022-10-16T12:17:23;101469.84;;;23.50;51.53
10852;BME280;5479;52.046;6.314;2022-10-16T12:20:00;101468.47;;;23.28;50.81
10852;BME280;5479;52.046;6.314;2022-10-16T12:22:30;101470.66;;;23.24;51.90
10852;BME280;5479;52.046;6.314;2022-10-16T12:24:59;101467.81;;;22.91;50.86
10852;BME280;5479;52.046;6.314;2022-10-16T12:27:29;101473.56;;;22.33;51.48
10852;BME280;5479;52.046;6.314;2022-10-16T12:30:01;101481.13;;;21.93;53.37
10852;BME280;5479;52.046;6.314;2022-10-16T12:32:31;101486.91;;;21.23;55.77
10852;BME280;5479;52.046;6.314;2022-10-16T12:35:00;101479.00;;;21.21;57.25
10852;BME280;5479;52.046;6.314;2022-10-16T12:37:31;101481.69;;;21.21;57.88
10852;BME280;5479;52.046;6.314;2022-10-16T12:40:12;101480.78;;;20.82;59.50
10852;BME280;5479;52.046;6.314;2022-10-16T12:42:41;101482.06;;;20.78;60.32
10852;BME280;5479;52.046;6.314;2022-10-16T12:45:29;101480.03;;;20.71;58.50
10852;BME280;5479;52.046;6.314;2022-10-16T12:47:58;101483.03;;;20.68;59.05
10852;BME280;5479;52.046;6.314;2022-10-16T12:50:33;101484.69;;;20.50;60.17
10852;BME280;5479;52.046;6.314;2022-10-16T12:53:03;101484.78;;;20.38;61.07
10852;BME280;5479;52.046;6.314;2022-10-16T12:55:42;101490.91;;;20.10;62.20
10852;BME280;5479;52.046;6.314;2022-10-16T12:58:22;101501.44;;;19.93;62.98
10852;BME280;5479;52.046;6.314;2022-10-16T13:00:57;101504.69;;;19.66;66.73
10852;BME280;5479;52.046;6.314;2022-10-16T13:03:44;101499.94;;;19.79;69.81
10852;BME280;5479;52.046;6.314;2022-10-16T13:06:22;101505.88;;;20.03;68.24
10852;BME280;5479;52.046;6.314;2022-10-16T13:09:18;101505.91;;;20.13;67.87
10852;BME280;5479;52.046;6.314;2022-10-16T13:12:00;101495.78;;;20.26;67.80
10852;BME280;5479;52.046;6.314;2022-10-16T13:17:37;101505.31;;;20.30;66.38
10852;BME280;5479;52.046;6.314;2022-10-16T13:20:16;101508.50;;;19.94;68.38